Aviation Digital Data Service (ADDS)

Output produced by METARs form (1810 UTC 19 August 2019)
found at http://www.aviationweather.gov/metar/data/
 
METAR text: RJBT 190900Z 03003KT 8000 FEW005 SCT060 OVC120 27/26 Q1009
Conditions at: RJBT (TAJIMA , JP) observed 0900 UTC 19 August 2019
Temperature: 27.0°C (81°F)
Dewpoint: 26.0°C (79°F) [RH = 94%]
Pressure (altimeter): 29.79 inches Hg (1009.0 mb)
Winds: from the NNE (30 degrees) at 3 MPH (3 knots; 1.5 m/s)
Visibility: 5 miles ( 8 km)
Ceiling: 12000 feet AGL
Clouds: few clouds at 500 feet AGL
scattered clouds at 6000 feet AGL
overcast cloud deck at 12000 feet AGL
Weather: no significant weather observed at this time

METAR text: RJBT 190800Z 35002KT 9999 FEW020 SCT100 OVC120 27/25 Q1010
Conditions at: RJBT (TAJIMA , JP) observed 0800 UTC 19 August 2019
Temperature: 27.0°C (81°F)
Dewpoint: 25.0°C (77°F) [RH = 89%]
Pressure (altimeter): 29.82 inches Hg (1010.0 mb)
Winds: from the N (350 degrees) at 2 MPH (2 knots; 1.0 m/s)
Visibility: 6 or more miles (10+ km)
Ceiling: 12000 feet AGL
Clouds: few clouds at 2000 feet AGL
scattered clouds at 10000 feet AGL
overcast cloud deck at 12000 feet AGL
Weather: no significant weather observed at this time

METAR text: RJBT 190700Z 01002KT 9999 -RA FEW005 SCT100 OVC120 28/25 Q1009
Conditions at: RJBT (TAJIMA , JP) observed 0700 UTC 19 August 2019
Temperature: 28.0°C (82°F)
Dewpoint: 25.0°C (77°F) [RH = 84%]
Pressure (altimeter): 29.79 inches Hg (1009.0 mb)
Winds: from the N (10 degrees) at 2 MPH (2 knots; 1.0 m/s)
Visibility: 6 or more miles (10+ km)
Ceiling: 12000 feet AGL
Clouds: few clouds at 500 feet AGL
scattered clouds at 10000 feet AGL
overcast cloud deck at 12000 feet AGL
Weather: -RA  (light rain)

METAR text: RJBT 190600Z VRB02KT 9999 -RA FEW005 SCT080 OVC120 28/24 Q1009
Conditions at: RJBT (TAJIMA , JP) observed 0600 UTC 19 August 2019
Temperature: 28.0°C (82°F)
Dewpoint: 24.0°C (75°F) [RH = 79%]
Pressure (altimeter): 29.79 inches Hg (1009.0 mb)
Winds: variable direction winds at 2 MPH (2 knots; 1.0 m/s)
Visibility: 6 or more miles (10+ km)
Ceiling: 12000 feet AGL
Clouds: few clouds at 500 feet AGL
scattered clouds at 8000 feet AGL
overcast cloud deck at 12000 feet AGL
Weather: -RA  (light rain)

METAR text: RJBT 190500Z VRB01KT 9999 -RA FEW005 SCT100 OVC120 28/25 Q1009
Conditions at: RJBT (TAJIMA , JP) observed 0500 UTC 19 August 2019
Temperature: 28.0°C (82°F)
Dewpoint: 25.0°C (77°F) [RH = 84%]
Pressure (altimeter): 29.79 inches Hg (1009.0 mb)
Winds: variable direction winds at 1 MPH (1 knots; 0.5 m/s)
Visibility: 6 or more miles (10+ km)
Ceiling: 12000 feet AGL
Clouds: few clouds at 500 feet AGL
scattered clouds at 10000 feet AGL
overcast cloud deck at 12000 feet AGL
Weather: -RA  (light rain)

METAR text: RJBT 190400Z 20003KT 170V230 9999 -RA FEW005 SCT080 BKN120 27/25 Q1010
Conditions at: RJBT (TAJIMA , JP) observed 0400 UTC 19 August 2019
Temperature: 27.0°C (81°F)
Dewpoint: 25.0°C (77°F) [RH = 89%]
Pressure (altimeter): 29.82 inches Hg (1010.0 mb)
Winds: from the SSW (200 degrees) at 3 MPH (3 knots; 1.5 m/s)
Visibility: 6 or more miles (10+ km)
Ceiling: 12000 feet AGL
Clouds: few clouds at 500 feet AGL
scattered clouds at 8000 feet AGL
broken clouds at 12000 feet AGL
Weather: -RA  (light rain)

METAR text: RJBT 190300Z VRB02KT 9999 FEW005 SCT080 BKN120 27/24 Q1010
Conditions at: RJBT (TAJIMA , JP) observed 0300 UTC 19 August 2019
Temperature: 27.0°C (81°F)
Dewpoint: 24.0°C (75°F) [RH = 84%]
Pressure (altimeter): 29.82 inches Hg (1010.0 mb)
Winds: variable direction winds at 2 MPH (2 knots; 1.0 m/s)
Visibility: 6 or more miles (10+ km)
Ceiling: 12000 feet AGL
Clouds: few clouds at 500 feet AGL
scattered clouds at 8000 feet AGL
broken clouds at 12000 feet AGL
Weather: no significant weather observed at this time

METAR text: RJBT 190200Z 17004KT 9999 FEW010 SCT080 BKN150 26/25 Q1010
Conditions at: RJBT (TAJIMA , JP) observed 0200 UTC 19 August 2019
Temperature: 26.0°C (79°F)
Dewpoint: 25.0°C (77°F) [RH = 94%]
Pressure (altimeter): 29.82 inches Hg (1010.0 mb)
Winds: from the S (170 degrees) at 5 MPH (4 knots; 2.1 m/s)
Visibility: 6 or more miles (10+ km)
Ceiling: 15000 feet AGL
Clouds: few clouds at 1000 feet AGL
scattered clouds at 8000 feet AGL
broken clouds at 15000 feet AGL
Weather: no significant weather observed at this time

METAR text: RJBT 190100Z 19005KT 9999 -RA FEW000 SCT080 OVC120 25/24 Q1010
Conditions at: RJBT (TAJIMA , JP) observed 0100 UTC 19 August 2019
Temperature: 25.0°C (77°F)
Dewpoint: 24.0°C (75°F) [RH = 94%]
Pressure (altimeter): 29.82 inches Hg (1010.0 mb)
Winds: from the S (190 degrees) at 6 MPH (5 knots; 2.6 m/s)
Visibility: 6 or more miles (10+ km)
Ceiling: 12000 feet AGL
Clouds: few clouds at 0 feet AGL
scattered clouds at 8000 feet AGL
overcast cloud deck at 12000 feet AGL
Weather: -RA  (light rain)

METAR text: RJBT 190022Z 19005KT 150V220 7000 -RA FEW000 SCT050 BKN110 25/24 Q1010 RMK 1ST000 3SC050 6AC110 A2983
Conditions at: RJBT (TAJIMA , JP) observed 0022 UTC 19 August 2019
Temperature: 25.0°C (77°F)
Dewpoint: 24.0°C (75°F) [RH = 94%]
Pressure (altimeter): 29.82 inches Hg (1010.0 mb)
Winds: from the S (190 degrees) at 6 MPH (5 knots; 2.6 m/s)
Visibility: 4 miles ( 7 km)
Ceiling: 11000 feet AGL
Clouds: few clouds at 0 feet AGL
scattered clouds at 5000 feet AGL
broken clouds at 11000 feet AGL
Weather: -RA  (light rain)

METAR text: RJBT 190000Z 20004KT 4500 -RA BCFG FEW000 SCT050 BKN110 24/24 Q1010
Conditions at: RJBT (TAJIMA , JP) observed 0000 UTC 19 August 2019
Temperature: 24.0°C (75°F)
Dewpoint: 24.0°C (75°F) [RH = 100%]
Pressure (altimeter): 29.82 inches Hg (1010.0 mb)
Winds: from the SSW (200 degrees) at 5 MPH (4 knots; 2.1 m/s)
Visibility: 2.80 miles (4.51 km)
Ceiling: 11000 feet AGL
Clouds: few clouds at 0 feet AGL
scattered clouds at 5000 feet AGL
broken clouds at 11000 feet AGL
Weather: -RA BCFG  (light rain, patches of fog)

METAR text: RJBT 182330Z 18004KT 3000 -RA BCFG FEW000 SCT050 BKN120 24/24 Q1010
Conditions at: RJBT (TAJIMA , JP) observed 2330 UTC 18 August 2019
Temperature: 24.0°C (75°F)
Dewpoint: 24.0°C (75°F) [RH = 100%]
Pressure (altimeter): 29.82 inches Hg (1010.0 mb)
Winds: from the S (180 degrees) at 5 MPH (4 knots; 2.1 m/s)
Visibility: 1.86 miles (2.99 km)
Ceiling: 12000 feet AGL
Clouds: few clouds at 0 feet AGL
scattered clouds at 5000 feet AGL
broken clouds at 12000 feet AGL
Weather: -RA BCFG  (light rain, patches of fog)

METAR text: RJBT 180900Z 01003KT 320V080 9999 FEW025 SCT180 BKN/// 27/23 Q1007
Conditions at: RJBT (TAJIMA , JP) observed 0900 UTC 18 August 2019
Temperature: 27.0°C (81°F)
Dewpoint: 23.0°C (73°F) [RH = 79%]
Pressure (altimeter): 29.73 inches Hg (1007.0 mb)
Winds: from the N (10 degrees) at 3 MPH (3 knots; 1.5 m/s)
Visibility: 6 or more miles (10+ km)
Ceiling: at least 12,000 feet AGL
Clouds: few clouds at 2500 feet AGL
scattered clouds at 18000 feet AGL
Weather: no significant weather observed at this time

METAR text: RJBT 180800Z 36008KT 9999 FEW030 SCT190 BKN/// 27/23 Q1007
Conditions at: RJBT (TAJIMA , JP) observed 0800 UTC 18 August 2019
Temperature: 27.0°C (81°F)
Dewpoint: 23.0°C (73°F) [RH = 79%]
Pressure (altimeter): 29.73 inches Hg (1007.0 mb)
Winds: from the N (360 degrees) at 9 MPH (8 knots; 4.1 m/s)
Visibility: 6 or more miles (10+ km)
Ceiling: at least 12,000 feet AGL
Clouds: few clouds at 3000 feet AGL
scattered clouds at 19000 feet AGL
Weather: no significant weather observed at this time

METAR text: RJBT 180700Z 36009KT 330V040 9999 FEW035 SCT/// 29/23 Q1007
Conditions at: RJBT (TAJIMA , JP) observed 0700 UTC 18 August 2019
Temperature: 29.0°C (84°F)
Dewpoint: 23.0°C (73°F) [RH = 70%]
Pressure (altimeter): 29.73 inches Hg (1007.0 mb)
Winds: from the N (360 degrees) at 10 MPH (9 knots; 4.6 m/s)
Visibility: 6 or more miles (10+ km)
Ceiling: at least 12,000 feet AGL
Clouds: few clouds at 3500 feet AGL
Weather: no significant weather observed at this time